sensor_id;sensor_type;location;lat;lon;timestamp;temperature;humidity
71304;DHT22;59091;47.446;19.148;2023-07-31T00:00:50;21.53;73.70
71304;DHT22;59091;47.446;19.148;2023-07-31T00:03:16;21.59;73.31
71304;DHT22;59091;47.446;19.148;2023-07-31T00:05:41;21.62;73.25
71304;DHT22;59091;47.446;19.148;2023-07-31T00:08:07;21.58;73.23
71304;DHT22;59091;47.446;19.148;2023-07-31T00:10:32;21.59;73.15
71304;DHT22;59091;47.446;19.148;2023-07-31T00:12:59;21.62;73.12
71304;DHT22;59091;47.446;19.148;2023-07-31T00:15:24;21.59;73.22
71304;DHT22;59091;47.446;19.148;2023-07-31T00:17:49;21.58;73.17
71304;DHT22;59091;47.446;19.148;2023-07-31T00:20:15;21.63;72.82
71304;DHT22;59091;47.446;19.148;2023-07-31T00:22:40;21.59;72.93
71304;DHT22;59091;47.446;19.148;2023-07-31T00:25:06;21.61;72.96
71304;DHT22;59091;47.446;19.148;2023-07-31T00:27:32;21.56;73.14
71304;DHT22;59091;47.446;19.148;2023-07-31T00:29:57;21.52;73.43
71304;DHT22;59091;47.446;19.148;2023-07-31T00:32:23;21.56;73.17
71304;DHT22;59091;47.446;19.148;2023-07-31T00:34:48;21.56;73.16
71304;DHT22;59091;47.446;19.148;2023-07-31T00:37:14;21.61;72.91
71304;DHT22;59091;47.446;19.148;2023-07-31T00:39:40;21.62;72.80
71304;DHT22;59091;47.446;19.148;2023-07-31T00:42:06;21.61;72.81
71304;DHT22;59091;47.446;19.148;2023-07-31T00:44:32;21.56;72.79
71304;DHT22;59091;47.446;19.148;2023-07-31T00:46:57;21.53;73.02
71304;DHT22;59091;47.446;19.148;2023-07-31T00:49:24;21.46;73.31
71304;DHT22;59091;47.446;19.148;2023-07-31T00:51:50;21.42;73.58
71304;DHT22;59091;47.446;19.148;2023-07-31T00:54:15;21.38;73.68
71304;DHT22;59091;47.446;19.148;2023-07-31T00:56:41;21.31;73.99
71304;DHT22;59091;47.446;19.148;2023-07-31T00:59:09;21.31;73.58
71304;DHT22;59091;47.446;19.148;2023-07-31T01:01:35;21.22;74.09
71304;DHT22;59091;47.446;19.148;2023-07-31T01:04:00;21.24;73.91
71304;DHT22;59091;47.446;19.148;2023-07-31T01:09:29;21.25;73.72
71304;DHT22;59091;47.446;19.148;2023-07-31T01:11:58;21.22;73.68
71304;DHT22;59091;47.446;19.148;2023-07-31T01:14:25;21.24;73.81
71304;DHT22;59091;47.446;19.148;2023-07-31T01:16:51;21.21;73.73
71304;DHT22;59091;47.446;19.148;2023-07-31T01:19:18;21.27;73.34
71304;DHT22;59091;47.446;19.148;2023-07-31T01:24:38;21.10;73.83
71304;DHT22;59091;47.446;19.148;2023-07-31T01:27:15;21.17;73.36
71304;DHT22;59091;47.446;19.148;2023-07-31T01:30:09;21.21;73.13
71304;DHT22;59091;47.446;19.148;2023-07-31T01:32:40;21.25;73.03
71304;DHT22;59091;47.446;19.148;2023-07-31T01:35:07;21.31;72.53
71304;DHT22;59091;47.446;19.148;2023-07-31T01:37:34;21.30;72.67
71304;DHT22;59091;47.446;19.148;2023-07-31T01:39:59;21.22;72.92
71304;DHT22;59091;47.446;19.148;2023-07-31T01:42:24;21.20;72.97
71304;DHT22;59091;47.446;19.148;2023-07-31T01:44:50;21.21;72.78
71304;DHT22;59091;47.446;19.148;2023-07-31T01:47:15;21.11;73.00
71304;DHT22;59091;47.446;19.148;2023-07-31T01:49:41;21.11;72.90
71304;DHT22;59091;47.446;19.148;2023-07-31T01:52:06;21.05;73.04
71304;DHT22;59091;47.446;19.148;2023-07-31T01:54:32;21.01;73.34
71304;DHT22;59091;47.446;19.148;2023-07-31T01:56:58;20.98;73.14
71304;DHT22;59091;47.446;19.148;2023-07-31T01:59:24;20.95;73.32
71304;DHT22;59091;47.446;19.148;2023-07-31T02:01:49;20.98;73.40
71304;DHT22;59091;47.446;19.148;2023-07-31T02:04:15;20.98;73.28
71304;DHT22;59091;47.446;19.148;2023-07-31T02:06:40;21.01;73.16
71304;DHT22;59091;47.446;19.148;2023-07-31T02:09:06;21.02;73.12
71304;DHT22;59091;47.446;19.148;2023-07-31T02:11:31;21.05;72.90
71304;DHT22;59091;47.446;19.148;2023-07-31T02:13:56;21.02;73.05
71304;DHT22;59091;47.446;19.148;2023-07-31T02:16:22;20.97;73.03
71304;DHT22;59091;47.446;19.148;2023-07-31T02:18:47;21.05;72.78
71304;DHT22;59091;47.446;19.148;2023-07-31T02:21:13;20.98;72.92
71304;DHT22;59091;47.446;19.148;2023-07-31T02:23:38;20.92;73.28
71304;DHT22;59091;47.446;19.148;2023-07-31T02:26:04;20.94;73.31
71304;DHT22;59091;47.446;19.148;2023-07-31T02:28:29;20.94;73.36
71304;DHT22;59091;47.446;19.148;2023-07-31T02:30:55;20.98;73.29
71304;DHT22;59091;47.446;19.148;2023-07-31T02:33:20;21.00;73.31
71304;DHT22;59091;47.446;19.148;2023-07-31T02:35:46;20.98;73.17
71304;DHT22;59091;47.446;19.148;2023-07-31T02:38:11;20.92;73.40
71304;DHT22;59091;47.446;19.148;2023-07-31T02:40:37;20.85;73.66
71304;DHT22;59091;47.446;19.148;2023-07-31T02:43:02;20.71;73.98
71304;DHT22;59091;47.446;19.148;2023-07-31T02:45:27;20.80;73.59
71304;DHT22;59091;47.446;19.148;2023-07-31T02:47:53;20.71;73.84
71304;DHT22;59091;47.446;19.148;2023-07-31T02:50:18;20.71;73.62
71304;DHT22;59091;47.446;19.148;2023-07-31T02:52:44;20.76;73.53
71304;DHT22;59091;47.446;19.148;2023-07-31T02:55:09;20.64;73.70
71304;DHT22;59091;47.446;19.148;2023-07-31T02:57:36;20.73;73.48
71304;DHT22;59091;47.446;19.148;2023-07-31T03:00:01;20.66;73.46
71304;DHT22;59091;47.446;19.148;2023-07-31T03:02:30;20.73;73.42
71304;DHT22;59091;47.446;19.148;2023-07-31T03:04:56;20.77;73.30
71304;DHT22;59091;47.446;19.148;2023-07-31T03:07:21;20.57;73.44
71304;DHT22;59091;47.446;19.148;2023-07-31T03:09:47;20.59;73.58
71304;DHT22;59091;47.446;19.148;2023-07-31T03:12:12;20.61;73.30
71304;DHT22;59091;47.446;19.148;2023-07-31T03:14:37;20.71;72.87
71304;DHT22;59091;47.446;19.148;2023-07-31T03:17:03;20.73;72.83
71304;DHT22;59091;47.446;19.148;2023-07-31T03:19:31;20.70;72.78
71304;DHT22;59091;47.446;19.148;2023-07-31T03:21:57;20.77;72.66
71304;DHT22;59091;47.446;19.148;2023-07-31T03:24:22;20.74;72.63
71304;DHT22;59091;47.446;19.148;2023-07-31T03:26:47;20.76;72.49
71304;DHT22;59091;47.446;19.148;2023-07-31T03:29:13;20.85;72.31
71304;DHT22;59091;47.446;19.148;2023-07-31T03:31:38;20.94;72.00
71304;DHT22;59091;47.446;19.148;2023-07-31T03:34:04;20.94;71.90
71304;DHT22;59091;47.446;19.148;2023-07-31T03:36:29;20.91;71.94
71304;DHT22;59091;47.446;19.148;2023-07-31T03:38:55;20.98;71.76
71304;DHT22;59091;47.446;19.148;2023-07-31T03:41:20;20.97;71.66
71304;DHT22;59091;47.446;19.148;2023-07-31T03:43:50;21.05;71.38
71304;DHT22;59091;47.446;19.148;2023-07-31T03:46:17;21.05;71.26
71304;DHT22;59091;47.446;19.148;2023-07-31T03:48:42;20.98;71.26
71304;DHT22;59091;47.446;19.148;2023-07-31T03:51:08;21.01;71.19
71304;DHT22;59091;47.446;19.148;2023-07-31T03:53:33;20.98;71.32
71304;DHT22;59091;47.446;19.148;2023-07-31T03:55:59;21.05;71.08
71304;DHT22;59091;47.446;19.148;2023-07-31T03:58:24;21.11;70.81
71304;DHT22;59091;47.446;19.148;2023-07-31T04:00:50;21.14;70.66
71304;DHT22;59091;47.446;19.148;2023-07-31T04:03:15;21.21;70.84
71304;DHT22;59091;47.446;19.148;2023-07-31T04:05:41;21.35;70.17
71304;DHT22;59091;47.446;19.148;2023-07-31T04:08:06;21.45;69.99
71304;DHT22;59091;47.446;19.148;2023-07-31T04:10:31;21.58;69.50
71304;DHT22;59091;47.446;19.148;2023-07-31T04:12:59;21.56;68.98
71304;DHT22;59091;47.446;19.148;2023-07-31T04:15:24;21.80;68.79
71304;DHT22;59091;47.446;19.148;2023-07-31T04:17:50;21.80;68.05
71304;DHT22;59091;47.446;19.148;2023-07-31T04:20:15;21.99;67.96
71304;DHT22;59091;47.446;19.148;2023-07-31T04:22:40;21.97;67.73
71304;DHT22;59091;47.446;19.148;2023-07-31T04:25:06;22.03;67.38
71304;DHT22;59091;47.446;19.148;2023-07-31T04:27:32;22.00;67.09
71304;DHT22;59091;47.446;19.148;2023-07-31T04:29:57;22.16;67.39
71304;DHT22;59091;47.446;19.148;2023-07-31T04:32:22;22.44;66.95
71304;DHT22;59091;47.446;19.148;2023-07-31T04:34:48;22.61;65.92
71304;DHT22;59091;47.446;19.148;2023-07-31T04:37:13;22.64;65.24
71304;DHT22;59091;47.446;19.148;2023-07-31T04:39:39;22.72;65.15
71304;DHT22;59091;47.446;19.148;2023-07-31T04:42:05;22.65;65.49
71304;DHT22;59091;47.446;19.148;2023-07-31T04:44:30;22.65;64.38
71304;DHT22;59091;47.446;19.148;2023-07-31T04:46:56;22.68;64.39
71304;DHT22;59091;47.446;19.148;2023-07-31T04:49:21;22.62;64.60
71304;DHT22;59091;47.446;19.148;2023-07-31T04:51:47;22.50;64.27
71304;DHT22;59091;47.446;19.148;2023-07-31T04:54:12;22.45;64.76
71304;DHT22;59091;47.446;19.148;2023-07-31T04:56:40;22.48;65.17
71304;DHT22;59091;47.446;19.148;2023-07-31T04:59:06;22.48;64.46
71304;DHT22;59091;47.446;19.148;2023-07-31T05:01:31;22.23;63.31
71304;DHT22;59091;47.446;19.148;2023-07-31T05:03:57;22.21;63.82
71304;DHT22;59091;47.446;19.148;2023-07-31T05:06:22;22.21;62.81
71304;DHT22;59091;47.446;19.148;2023-07-31T05:08:48;21.96;61.78
71304;DHT22;59091;47.446;19.148;2023-07-31T05:11:13;21.88;61.25
71304;DHT22;59091;47.446;19.148;2023-07-31T05:13:39;21.88;60.65
71304;DHT22;59091;47.446;19.148;2023-07-31T05:16:04;21.82;60.63
71304;DHT22;59091;47.446;19.148;2023-07-31T05:18:29;21.76;60.39
71304;DHT22;59091;47.446;19.148;2023-07-31T05:20:55;21.78;60.43
71304;DHT22;59091;47.446;19.148;2023-07-31T05:23:20;21.88;59.60
71304;DHT22;59091;47.446;19.148;2023-07-31T05:25:46;21.90;59.65
71304;DHT22;59091;47.446;19.148;2023-07-31T05:28:12;22.02;60.30
71304;DHT22;59091;47.446;19.148;2023-07-31T05:30:38;22.06;59.09
71304;DHT22;59091;47.446;19.148;2023-07-31T05:33:03;22.13;58.91
71304;DHT22;59091;47.446;19.148;2023-07-31T05:35:29;22.44;58.57
71304;DHT22;59091;47.446;19.148;2023-07-31T05:37:54;22.45;57.35
71304;DHT22;59091;47.446;19.148;2023-07-31T05:40:20;22.40;57.59
71304;DHT22;59091;47.446;19.148;2023-07-31T05:42:45;22.20;56.75
71304;DHT22;59091;47.446;19.148;2023-07-31T05:45:10;22.21;55.56
71304;DHT22;59091;47.446;19.148;2023-07-31T05:47:36;22.09;55.40
71304;DHT22;59091;47.446;19.148;2023-07-31T05:50:01;22.09;55.38
71304;DHT22;59091;47.446;19.148;2023-07-31T05:52:27;22.09;55.68
71304;DHT22;59091;47.446;19.148;2023-07-31T05:54:54;22.24;55.74
71304;DHT22;59091;47.446;19.148;2023-07-31T05:57:19;22.29;55.84
71304;DHT22;59091;47.446;19.148;2023-07-31T05:59:45;22.50;54.63
71304;DHT22;59091;47.446;19.148;2023-07-31T06:02:11;22.54;53.99
71304;DHT22;59091;47.446;19.148;2023-07-31T06:04:36;22.37;53.72
71304;DHT22;59091;47.446;19.148;2023-07-31T06:07:02;22.31;53.43
71304;DHT22;59091;47.446;19.148;2023-07-31T06:09:28;22.41;53.54
71304;DHT22;59091;47.446;19.148;2023-07-31T06:11:53;22.47;53.89
71304;DHT22;59091;47.446;19.148;2023-07-31T06:14:19;22.52;53.46
71304;DHT22;59091;47.446;19.148;2023-07-31T06:16:44;22.47;53.35
71304;DHT22;59091;47.446;19.148;2023-07-31T06:19:10;22.67;52.68
71304;DHT22;59091;47.446;19.148;2023-07-31T06:21:36;22.79;51.63
71304;DHT22;59091;47.446;19.148;2023-07-31T06:24:07;23.15;51.03
71304;DHT22;59091;47.446;19.148;2023-07-31T06:26:32;23.53;50.53
71304;DHT22;59091;47.446;19.148;2023-07-31T06:28:58;23.49;49.93
71304;DHT22;59091;47.446;19.148;2023-07-31T06:31:23;23.45;49.76
71304;DHT22;59091;47.446;19.148;2023-07-31T06:33:50;23.66;49.62
71304;DHT22;59091;47.446;19.148;2023-07-31T06:36:16;23.85;49.25
71304;DHT22;59091;47.446;19.148;2023-07-31T06:38:41;23.87;47.55
71304;DHT22;59091;47.446;19.148;2023-07-31T06:41:06;24.34;47.38
71304;DHT22;59091;47.446;19.148;2023-07-31T06:43:32;24.61;47.02
71304;DHT22;59091;47.446;19.148;2023-07-31T06:45:57;24.82;46.38
71304;DHT22;59091;47.446;19.148;2023-07-31T06:48:27;24.93;45.54
71304;DHT22;59091;47.446;19.148;2023-07-31T06:50:53;24.99;46.58
71304;DHT22;59091;47.446;19.148;2023-07-31T06:53:18;24.82;45.81
71304;DHT22;59091;47.446;19.148;2023-07-31T06:55:43;25.04;46.85
71304;DHT22;59091;47.446;19.148;2023-07-31T06:58:09;25.17;45.60
71304;DHT22;59091;47.446;19.148;2023-07-31T07:00:34;25.02;45.69
71304;DHT22;59091;47.446;19.148;2023-07-31T07:03:00;24.93;46.05
71304;DHT22;59091;47.446;19.148;2023-07-31T07:05:25;24.73;46.34
71304;DHT22;59091;47.446;19.148;2023-07-31T07:07:51;24.65;46.08
71304;DHT22;59091;47.446;19.148;2023-07-31T07:10:17;24.55;45.82
71304;DHT22;59091;47.446;19.148;2023-07-31T07:12:42;24.72;46.45
71304;DHT22;59091;47.446;19.148;2023-07-31T07:15:08;24.83;47.87
71304;DHT22;59091;47.446;19.148;2023-07-31T07:17:34;24.41;48.97
71304;DHT22;59091;47.446;19.148;2023-07-31T07:20:00;24.28;49.86
71304;DHT22;59091;47.446;19.148;2023-07-31T07:22:26;24.21;49.51
71304;DHT22;59091;47.446;19.148;2023-07-31T07:24:52;24.10;49.93
71304;DHT22;59091;47.446;19.148;2023-07-31T07:27:18;24.18;49.86
71304;DHT22;59091;47.446;19.148;2023-07-31T07:29:43;23.94;50.16
71304;DHT22;59091;47.446;19.148;2023-07-31T07:32:09;23.91;50.09
71304;DHT22;59091;47.446;19.148;2023-07-31T07:34:34;23.81;50.10
71304;DHT22;59091;47.446;19.148;2023-07-31T07:37:00;23.94;48.79
71304;DHT22;59091;47.446;19.148;2023-07-31T07:39:25;24.56;47.87
71304;DHT22;59091;47.446;19.148;2023-07-31T07:41:51;25.02;46.04
71304;DHT22;59091;47.446;19.148;2023-07-31T07:44:18;25.06;45.46
71304;DHT22;59091;47.446;19.148;2023-07-31T07:46:43;25.14;45.21
71304;DHT22;59091;47.446;19.148;2023-07-31T07:49:09;25.38;44.80
71304;DHT22;59091;47.446;19.148;2023-07-31T07:51:34;25.67;45.02
71304;DHT22;59091;47.446;19.148;2023-07-31T07:54:00;25.77;43.91
71304;DHT22;59091;47.446;19.148;2023-07-31T07:56:26;26.18;42.98
71304;DHT22;59091;47.446;19.148;2023-07-31T07:58:52;26.28;42.81
71304;DHT22;59091;47.446;19.148;2023-07-31T08:01:18;26.32;42.77
71304;DHT22;59091;47.446;19.148;2023-07-31T08:03:44;26.14;42.15
71304;DHT22;59091;47.446;19.148;2023-07-31T08:06:10;25.54;40.94
71304;DHT22;59091;47.446;19.148;2023-07-31T08:08:36;25.53;42.01
71304;DHT22;59091;47.446;19.148;2023-07-31T08:11:02;25.43;42.28
71304;DHT22;59091;47.446;19.148;2023-07-31T08:13:27;25.64;42.69
71304;DHT22;59091;47.446;19.148;2023-07-31T08:15:52;25.89;41.52
71304;DHT22;59091;47.446;19.148;2023-07-31T08:18:18;25.80;41.89
71304;DHT22;59091;47.446;19.148;2023-07-31T08:20:44;26.45;40.48
71304;DHT22;59091;47.446;19.148;2023-07-31T08:23:09;26.83;39.34
71304;DHT22;59091;47.446;19.148;2023-07-31T08:25:36;26.86;39.78
71304;DHT22;59091;47.446;19.148;2023-07-31T08:28:02;27.00;38.85
71304;DHT22;59091;47.446;19.148;2023-07-31T08:30:27;27.38;37.99
71304;DHT22;59091;47.446;19.148;2023-07-31T08:32:53;27.58;37.92
71304;DHT22;59091;47.446;19.148;2023-07-31T08:35:18;27.37;37.04
71304;DHT22;59091;47.446;19.148;2023-07-31T08:37:44;27.69;36.97
71304;DHT22;59091;47.446;19.148;2023-07-31T08:40:10;27.89;36.43
71304;DHT22;59091;47.446;19.148;2023-07-31T08:42:46;28.16;35.91
71304;DHT22;59091;47.446;19.148;2023-07-31T08:45:16;28.29;35.88
71304;DHT22;59091;47.446;19.148;2023-07-31T08:47:45;28.29;35.24
71304;DHT22;59091;47.446;19.148;2023-07-31T08:50:16;28.16;35.56
71304;DHT22;59091;47.446;19.148;2023-07-31T08:52:42;28.41;35.87
71304;DHT22;59091;47.446;19.148;2023-07-31T08:55:08;28.95;35.01
71304;DHT22;59091;47.446;19.148;2023-07-31T08:57:36;28.65;34.86
71304;DHT22;59091;47.446;19.148;2023-07-31T09:00:04;28.54;35.13
71304;DHT22;59091;47.446;19.148;2023-07-31T09:02:52;28.21;35.48
71304;DHT22;59091;47.446;19.148;2023-07-31T09:05:20;28.72;35.85
71304;DHT22;59091;47.446;19.148;2023-07-31T09:07:47;28.50;35.03
71304;DHT22;59091;47.446;19.148;2023-07-31T09:10:13;28.51;34.60
71304;DHT22;59091;47.446;19.148;2023-07-31T09:12:39;28.12;35.27
71304;DHT22;59091;47.446;19.148;2023-07-31T09:15:05;27.78;35.31
71304;DHT22;59091;47.446;19.148;2023-07-31T09:17:35;27.97;35.83
71304;DHT22;59091;47.446;19.148;2023-07-31T09:20:22;27.44;35.42
71304;DHT22;59091;47.446;19.148;2023-07-31T09:22:48;27.23;35.85
71304;DHT22;59091;47.446;19.148;2023-07-31T09:25:19;27.18;36.59
71304;DHT22;59091;47.446;19.148;2023-07-31T09:27:57;26.72;36.83
71304;DHT22;59091;47.446;19.148;2023-07-31T09:30:23;26.69;37.65
71304;DHT22;59091;47.446;19.148;2023-07-31T09:32:50;26.60;38.01
71304;DHT22;59091;47.446;19.148;2023-07-31T09:35:27;26.80;38.72
71304;DHT22;59091;47.446;19.148;2023-07-31T09:37:55;26.70;39.26
71304;DHT22;59091;47.446;19.148;2023-07-31T09:40:29;26.22;39.03
71304;DHT22;59091;47.446;19.148;2023-07-31T09:43:02;26.36;39.71
71304;DHT22;59091;47.446;19.148;2023-07-31T09:45:28;26.19;38.77
71304;DHT22;59091;47.446;19.148;2023-07-31T09:47:54;25.84;40.14
71304;DHT22;59091;47.446;19.148;2023-07-31T09:50:22;25.80;40.03
71304;DHT22;59091;47.446;19.148;2023-07-31T09:52:48;25.84;40.86
71304;DHT22;59091;47.446;19.148;2023-07-31T09:55:13;26.06;40.82
71304;DHT22;59091;47.446;19.148;2023-07-31T09:57:41;26.15;40.91
71304;DHT22;59091;47.446;19.148;2023-07-31T10:00:10;26.01;40.52
71304;DHT22;59091;47.446;19.148;2023-07-31T10:02:36;26.15;42.01
71304;DHT22;59091;47.446;19.148;2023-07-31T10:05:03;26.19;39.66
71304;DHT22;59091;47.446;19.148;2023-07-31T10:07:30;26.24;40.19
71304;DHT22;59091;47.446;19.148;2023-07-31T10:10:00;26.11;40.13
71304;DHT22;59091;47.446;19.148;2023-07-31T10:12:27;26.02;39.76
71304;DHT22;59091;47.446;19.148;2023-07-31T10:14:55;26.04;39.99
71304;DHT22;59091;47.446;19.148;2023-07-31T10:17:25;26.31;42.13
71304;DHT22;59091;47.446;19.148;2023-07-31T10:19:51;26.16;40.03
71304;DHT22;59091;47.446;19.148;2023-07-31T10:22:16;26.16;39.25
71304;DHT22;59091;47.446;19.148;2023-07-31T10:24:45;26.12;40.06
71304;DHT22;59091;47.446;19.148;2023-07-31T10:27:11;26.24;39.48
71304;DHT22;59091;47.446;19.148;2023-07-31T10:29:40;26.52;39.12
71304;DHT22;59091;47.446;19.148;2023-07-31T10:32:10;26.73;38.45
71304;DHT22;59091;47.446;19.148;2023-07-31T10:34:39;26.72;39.18
71304;DHT22;59091;47.446;19.148;2023-07-31T10:37:24;26.53;39.53
71304;DHT22;59091;47.446;19.148;2023-07-31T10:39:58;26.66;38.67
71304;DHT22;59091;47.446;19.148;2023-07-31T10:42:30;26.52;38.76
71304;DHT22;59091;47.446;19.148;2023-07-31T10:44:58;26.67;39.71
71304;DHT22;59091;47.446;19.148;2023-07-31T10:47:23;26.55;39.23
71304;DHT22;59091;47.446;19.148;2023-07-31T10:49:49;26.57;40.47
71304;DHT22;59091;47.446;19.148;2023-07-31T10:52:19;26.47;38.96
71304;DHT22;59091;47.446;19.148;2023-07-31T10:54:49;26.43;39.29
71304;DHT22;59091;47.446;19.148;2023-07-31T10:57:21;26.29;39.39
71304;DHT22;59091;47.446;19.148;2023-07-31T10:59:48;26.63;40.30
71304;DHT22;59091;47.446;19.148;2023-07-31T11:02:26;26.80;39.08
71304;DHT22;59091;47.446;19.148;2023-07-31T11:05:08;26.70;38.94
71304;DHT22;59091;47.446;19.148;2023-07-31T11:08:00;26.79;39.21
71304;DHT22;59091;47.446;19.148;2023-07-31T11:10:25;26.86;39.19
71304;DHT22;59091;47.446;19.148;2023-07-31T11:12:51;26.72;39.19
71304;DHT22;59091;47.446;19.148;2023-07-31T11:15:16;26.86;39.02
71304;DHT22;59091;47.446;19.148;2023-07-31T11:17:42;26.80;38.45
71304;DHT22;59091;47.446;19.148;2023-07-31T11:20:08;26.35;38.81
71304;DHT22;59091;47.446;19.148;2023-07-31T11:22:36;26.18;39.70
71304;DHT22;59091;47.446;19.148;2023-07-31T11:25:05;26.43;39.48
71304;DHT22;59091;47.446;19.148;2023-07-31T11:27:30;26.70;40.35
71304;DHT22;59091;47.446;19.148;2023-07-31T11:30:02;27.00;38.34
71304;DHT22;59091;47.446;19.148;2023-07-31T11:32:28;26.94;37.40
71304;DHT22;59091;47.446;19.148;2023-07-31T11:34:54;26.97;38.34
71304;DHT22;59091;47.446;19.148;2023-07-31T11:37:20;26.97;37.96
71304;DHT22;59091;47.446;19.148;2023-07-31T11:40:01;27.24;38.24
71304;DHT22;59091;47.446;19.148;2023-07-31T11:42:27;27.56;38.95
71304;DHT22;59091;47.446;19.148;2023-07-31T11:44:52;27.85;37.62
71304;DHT22;59091;47.446;19.148;2023-07-31T11:47:18;27.82;37.26
71304;DHT22;59091;47.446;19.148;2023-07-31T11:49:43;28.09;36.70
71304;DHT22;59091;47.446;19.148;2023-07-31T11:52:09;27.93;35.85
71304;DHT22;59091;47.446;19.148;2023-07-31T11:54:35;27.95;36.16
71304;DHT22;59091;47.446;19.148;2023-07-31T11:57:01;27.82;36.67
71304;DHT22;59091;47.446;19.148;2023-07-31T11:59:27;27.72;36.78
71304;DHT22;59091;47.446;19.148;2023-07-31T12:01:53;27.66;35.89
71304;DHT22;59091;47.446;19.148;2023-07-31T12:04:19;27.63;36.68
71304;DHT22;59091;47.446;19.148;2023-07-31T12:06:46;27.69;36.70
71304;DHT22;59091;47.446;19.148;2023-07-31T12:09:14;27.69;36.96
71304;DHT22;59091;47.446;19.148;2023-07-31T12:11:44;28.02;36.32
71304;DHT22;59091;47.446;19.148;2023-07-31T12:14:26;27.90;36.06
71304;DHT22;59091;47.446;19.148;2023-07-31T12:17:04;27.81;36.53
71304;DHT22;59091;47.446;19.148;2023-07-31T12:19:29;27.89;35.99
71304;DHT22;59091;47.446;19.148;2023-07-31T12:21:56;27.95;36.23
71304;DHT22;59091;47.446;19.148;2023-07-31T12:24:21;27.84;36.12
71304;DHT22;59091;47.446;19.148;2023-07-31T12:26:48;27.90;37.47
71304;DHT22;59091;47.446;19.148;2023-07-31T12:29:14;27.82;36.18
71304;DHT22;59091;47.446;19.148;2023-07-31T12:31:41;27.66;37.05
71304;DHT22;59091;47.446;19.148;2023-07-31T12:34:17;27.76;36.70
71304;DHT22;59091;47.446;19.148;2023-07-31T12:36:43;28.07;36.09
71304;DHT22;59091;47.446;19.148;2023-07-31T12:39:09;28.19;36.65
71304;DHT22;59091;47.446;19.148;2023-07-31T12:41:35;28.14;36.14
71304;DHT22;59091;47.446;19.148;2023-07-31T12:44:00;27.96;36.21
71304;DHT22;59091;47.446;19.148;2023-07-31T12:46:26;28.12;36.26
71304;DHT22;59091;47.446;19.148;2023-07-31T12:48:51;28.44;36.58
71304;DHT22;59091;47.446;19.148;2023-07-31T12:51:17;28.43;37.01
71304;DHT22;59091;47.446;19.148;2023-07-31T12:53:42;28.48;35.50
71304;DHT22;59091;47.446;19.148;2023-07-31T12:56:07;28.60;35.01
71304;DHT22;59091;47.446;19.148;2023-07-31T12:58:33;28.63;35.01
71304;DHT22;59091;47.446;19.148;2023-07-31T13:00:58;28.29;35.09
71304;DHT22;59091;47.446;19.148;2023-07-31T13:03:24;28.21;35.39
71304;DHT22;59091;47.446;19.148;2023-07-31T13:05:50;28.06;36.08
71304;DHT22;59091;47.446;19.148;2023-07-31T13:08:15;28.03;36.03
71304;DHT22;59091;47.446;19.148;2023-07-31T13:10:42;28.12;36.35
71304;DHT22;59091;47.446;19.148;2023-07-31T13:13:09;28.21;38.02
71304;DHT22;59091;47.446;19.148;2023-07-31T13:15:34;28.13;35.62
71304;DHT22;59091;47.446;19.148;2023-07-31T13:18:00;27.99;36.17
71304;DHT22;59091;47.446;19.148;2023-07-31T13:20:25;27.65;36.80
71304;DHT22;59091;47.446;19.148;2023-07-31T13:22:51;27.52;36.52
71304;DHT22;59091;47.446;19.148;2023-07-31T13:25:16;27.69;36.85
71304;DHT22;59091;47.446;19.148;2023-07-31T13:27:42;27.84;36.90
71304;DHT22;59091;47.446;19.148;2023-07-31T13:30:08;28.10;36.61
71304;DHT22;59091;47.446;19.148;2023-07-31T13:32:33;28.37;36.72
71304;DHT22;59091;47.446;19.148;2023-07-31T13:34:59;28.35;35.71
71304;DHT22;59091;47.446;19.148;2023-07-31T13:37:24;28.26;35.98
71304;DHT22;59091;47.446;19.148;2023-07-31T13:39:50;28.33;35.97
71304;DHT22;59091;47.446;19.148;2023-07-31T13:42:15;28.50;35.94
71304;DHT22;59091;47.446;19.148;2023-07-31T13:44:41;28.64;36.54
71304;DHT22;59091;47.446;19.148;2023-07-31T13:47:08;28.51;35.23
71304;DHT22;59091;47.446;19.148;2023-07-31T13:49:34;28.51;35.13
71304;DHT22;59091;47.446;19.148;2023-07-31T13:52:00;28.36;35.63
71304;DHT22;59091;47.446;19.148;2023-07-31T13:54:26;28.19;35.59
71304;DHT22;59091;47.446;19.148;2023-07-31T13:56:53;28.27;36.55
71304;DHT22;59091;47.446;19.148;2023-07-31T13:59:18;28.39;36.44
71304;DHT22;59091;47.446;19.148;2023-07-31T14:01:44;28.51;35.65
71304;DHT22;59091;47.446;19.148;2023-07-31T14:04:10;28.50;35.27
71304;DHT22;59091;47.446;19.148;2023-07-31T14:06:35;28.56;34.78
71304;DHT22;59091;47.446;19.148;2023-07-31T14:09:01;28.61;35.35
71304;DHT22;59091;47.446;19.148;2023-07-31T14:11:27;28.50;35.27
71304;DHT22;59091;47.446;19.148;2023-07-31T14:13:53;28.46;35.34
71304;DHT22;59091;47.446;19.148;2023-07-31T14:16:18;28.63;35.29
71304;DHT22;59091;47.446;19.148;2023-07-31T14:18:44;28.77;35.40
71304;DHT22;59091;47.446;19.148;2023-07-31T14:21:11;29.08;35.01
71304;DHT22;59091;47.446;19.148;2023-07-31T14:23:37;29.12;34.71
71304;DHT22;59091;47.446;19.148;2023-07-31T14:26:02;28.99;34.29
71304;DHT22;59091;47.446;19.148;2023-07-31T14:28:27;28.98;34.29
71304;DHT22;59091;47.446;19.148;2023-07-31T14:30:53;28.84;34.83
71304;DHT22;59091;47.446;19.148;2023-07-31T14:33:18;28.98;34.24
71304;DHT22;59091;47.446;19.148;2023-07-31T14:35:44;29.09;34.27
71304;DHT22;59091;47.446;19.148;2023-07-31T14:38:10;29.22;35.13
71304;DHT22;59091;47.446;19.148;2023-07-31T14:40:35;29.11;34.02
71304;DHT22;59091;47.446;19.148;2023-07-31T14:43:01;29.40;33.96
71304;DHT22;59091;47.446;19.148;2023-07-31T14:45:27;29.30;33.99
71304;DHT22;59091;47.446;19.148;2023-07-31T14:47:52;29.40;34.06
71304;DHT22;59091;47.446;19.148;2023-07-31T14:50:20;29.63;34.11
71304;DHT22;59091;47.446;19.148;2023-07-31T14:52:45;29.18;34.08
71304;DHT22;59091;47.446;19.148;2023-07-31T14:55:10;29.30;33.30
71304;DHT22;59091;47.446;19.148;2023-07-31T14:57:36;29.43;33.61
71304;DHT22;59091;47.446;19.148;2023-07-31T15:00:02;29.62;33.99
71304;DHT22;59091;47.446;19.148;2023-07-31T15:02:32;29.56;33.21
71304;DHT22;59091;47.446;19.148;2023-07-31T15:04:57;29.52;33.67
71304;DHT22;59091;47.446;19.148;2023-07-31T15:07:23;29.55;33.52
71304;DHT22;59091;47.446;19.148;2023-07-31T15:09:48;29.60;33.54
71304;DHT22;59091;47.446;19.148;2023-07-31T15:12:14;29.58;33.56
71304;DHT22;59091;47.446;19.148;2023-07-31T15:14:39;29.36;33.81
71304;DHT22;59091;47.446;19.148;2023-07-31T15:17:05;29.55;33.56